Time;durP1;ratioP1;P1;durP2;ratioP2;P2;SDS_P1;SDS_P2;PMS_P1;PMS_P2;Temp;Humidity;BMP_temperature;BMP_pressure;BME280_temperature;BME280_humidity;BME280_pressure;Samples;Min_cycle;Max_cycle;Signal;HPM_P1;HPM_P2
2021/06/15 00:00:52;;;;;;;;;;;;;;;8.84;100.00;99740.28;5072555;28;19925;-82
2021/06/15 00:03:21;;;;;;;;;;;;;;;8.79;100.00;99738.69;5073782;28;20383;-81
2021/06/15 00:05:48;;;;;;;;;;;;;;;8.68;100.00;99729.50;5056047;28;19931;-82
2021/06/15 00:08:16;;;;;;;;;;;;;;;8.51;100.00;99727.44;5055941;28;20434;-82
2021/06/15 00:10:44;;;;;;;;;;;;;;;8.31;100.00;99737.34;5056227;28;19931;-82
2021/06/15 00:13:11;;;;;;;;;;;;;;;8.42;100.00;99746.53;5089297;28;19925;-82
2021/06/15 00:15:40;;;;;;;;;;;;;;;8.42;100.00;99746.53;5073664;28;20367;-82
2021/06/15 00:18:07;;;;;;;;;;;;;;;8.56;100.00;99746.56;5055723;28;19929;-82
2021/06/15 00:20:35;;;;;;;;;;;;;;;8.51;100.00;99748.94;5055844;28;19925;-82
2021/06/15 00:23:03;;;;;;;;;;;;;;;8.51;100.00;99749.72;5078312;28;19956;-82
2021/06/15 00:25:30;;;;;;;;;;;;;;;8.42;100.00;99749.31;5093632;28;19931;-82
2021/06/15 00:27:57;;;;;;;;;;;;;;;8.36;100.00;99753.66;5069512;28;22748;-82
2021/06/15 00:30:24;;;;;;;;;;;;;;;8.41;100.00;99749.69;5083587;28;19947;-82
2021/06/15 00:32:51;;;;;;;;;;;;;;;8.59;100.00;99745.78;5101202;28;19924;-82
2021/06/15 00:35:19;;;;;;;;;;;;;;;8.46;100.00;99746.53;5074506;28;19924;-82
2021/06/15 00:37:47;;;;;;;;;;;;;;;8.25;100.00;99744.50;5066074;28;19932;-82
2021/06/15 00:40:14;;;;;;;;;;;;;;;8.11;100.00;99743.59;5063569;28;19932;-82
2021/06/15 00:42:41;;;;;;;;;;;;;;;7.89;100.00;99750.25;5055484;28;19924;-82
2021/06/15 00:45:10;;;;;;;;;;;;;;;7.83;100.00;99752.56;5078456;28;19928;-82
2021/06/15 00:47:38;;;;;;;;;;;;;;;7.84;100.00;99759.75;5043349;28;19928;-83
2021/06/15 00:50:06;;;;;;;;;;;;;;;7.91;100.00;99759.78;5059549;28;19925;-82
2021/06/15 00:52:33;;;;;;;;;;;;;;;7.93;100.00;99762.19;5059687;28;19924;-82
2021/06/15 00:55:00;;;;;;;;;;;;;;;7.99;100.00;99771.75;5059559;28;19924;-82
2021/06/15 00:57:30;;;;;;;;;;;;;;;8.04;100.00;99763.81;5085444;28;19924;-82
2021/06/15 00:59:58;;;;;;;;;;;;;;;7.97;100.00;99763.00;5064689;28;19928;-82
2021/06/15 01:02:27;;;;;;;;;;;;;;;7.97;100.00;99752.66;5065774;28;19924;-82
2021/06/15 01:04:55;;;;;;;;;;;;;;;8.04;100.00;99763.81;5049890;28;19931;-82
2021/06/15 01:07:37;;;;;;;;;;;;;;;7.87;100.00;99758.97;5078092;28;19929;-82
2021/06/15 01:10:23;;;;;;;;;;;;;;;7.67;100.00;99754.88;5066292;28;19931;-82
2021/06/15 01:13:14;;;;;;;;;;;;;;;7.36;100.00;99745.13;5065213;28;20367;-82
2021/06/15 01:15:45;;;;;;;;;;;;;;;7.49;100.00;99751.19;5017705;28;19925;-82
2021/06/15 01:18:14;;;;;;;;;;;;;;;7.59;100.00;99747.66;5035052;28;20092;-82
2021/06/15 01:20:44;;;;;;;;;;;;;;;7.65;100.00;99751.66;5034446;28;19929;-82
2021/06/15 01:23:29;;;;;;;;;;;;;;;7.69;100.00;99757.28;5043778;28;19932;-82
2021/06/15 01:26:00;;;;;;;;;;;;;;;7.73;100.00;99764.44;5036787;28;19988;-82
2021/06/15 01:28:30;;;;;;;;;;;;;;;7.64;100.00;99777.91;5001908;28;20355;-82
2021/06/15 01:31:01;;;;;;;;;;;;;;;7.45;100.00;99769.81;5017881;28;19925;-82
2021/06/15 01:33:30;;;;;;;;;;;;;;;7.30;100.00;99768.09;5018020;28;19933;-82
2021/06/15 01:35:59;;;;;;;;;;;;;;;7.26;100.00;99767.28;5017894;28;19936;-82
2021/06/15 01:38:37;;;;;;;;;;;;;;;7.29;100.00;99772.06;5032689;28;20444;-82
2021/06/15 01:41:04;;;;;;;;;;;;;;;7.33;100.00;99759.78;5018209;28;19932;-82
2021/06/15 01:43:40;;;;;;;;;;;;;;;7.13;100.00;99758.44;5033892;28;19925;-82
2021/06/15 01:46:10;;;;;;;;;;;;;;;7.12;100.00;99754.06;5034360;28;20637;-82
2021/06/15 01:48:47;;;;;;;;;;;;;;;6.96;100.00;99747.97;5017592;28;19929;-82
2021/06/15 01:51:16;;;;;;;;;;;;;;;7.13;100.00;99746.53;5050918;28;20016;-82
2021/06/15 01:53:49;;;;;;;;;;;;;;;7.23;100.00;99748.59;5072521;28;19931;-82
2021/06/15 01:56:24;;;;;;;;;;;;;;;7.13;100.00;99746.53;5058370;28;20018;-82
2021/06/15 01:58:57;;;;;;;;;;;;;;;7.03;100.00;99752.78;5058120;28;20449;-82
2021/06/15 02:01:27;;;;;;;;;;;;;;;6.87;100.00;99761.38;5058160;28;20297;-82
2021/06/15 02:03:58;;;;;;;;;;;;;;;6.76;100.00;99754.09;5058002;28;20287;-82
2021/06/15 02:06:27;;;;;;;;;;;;;;;6.75;100.00;99752.53;5058336;28;20540;-82
2021/06/15 02:08:57;;;;;;;;;;;;;;;6.73;100.00;99741.78;5058489;28;20329;-82
2021/06/15 02:11:43;;;;;;;;;;;;;;;6.83;100.00;99743.88;5075796;28;20363;-82
2021/06/15 02:14:43;;;;;;;;;;;;;;;6.85;100.00;99746.25;5044344;28;20053;-82
2021/06/15 02:17:24;;;;;;;;;;;;;;;6.71;100.00;99752.47;5024770;28;20402;-82
2021/06/15 02:20:10;;;;;;;;;;;;;;;6.51;100.00;99751.06;5075702;28;19929;-82
2021/06/15 02:22:46;;;;;;;;;;;;;;;6.28;100.00;99741.28;5057786;28;19928;-82
2021/06/15 02:25:18;;;;;;;;;;;;;;;5.95;100.00;99741.28;5075688;28;20394;-82
2021/06/15 02:27:45;;;;;;;;;;;;;;;5.97;100.00;99741.72;5057428;28;20398;-82
2021/06/15 02:30:14;;;;;;;;;;;;;;;6.06;100.00;99742.22;5041515;28;20394;-82
2021/06/15 02:32:51;;;;;;;;;;;;;;;6.20;100.00;99747.91;5057656;28;20245;-82
2021/06/15 02:35:23;;;;;;;;;;;;;;;6.35;100.00;99744.13;5057457;28;20371;-82
2021/06/15 02:37:51;;;;;;;;;;;;;;;6.49;100.00;99744.31;5075115;28;19978;-82
2021/06/15 02:40:21;;;;;;;;;;;;;;;6.48;100.00;99748.28;5057469;28;20015;-82
2021/06/15 02:42:50;;;;;;;;;;;;;;;6.38;100.00;99749.75;5057403;28;19931;-82
2021/06/15 02:45:20;;;;;;;;;;;;;;;5.99;100.00;99731.00;5075417;28;19966;-82
2021/06/15 02:47:48;;;;;;;;;;;;;;;5.90;100.00;99728.53;5041151;28;20348;-82
2021/06/15 02:50:19;;;;;;;;;;;;;;;5.87;100.00;99734.03;5057021;28;20007;-82
2021/06/15 02:52:49;;;;;;;;;;;;;;;6.02;100.00;99731.06;5074044;28;20268;-82
2021/06/15 02:55:23;;;;;;;;;;;;;;;6.12;100.00;99729.63;5057052;28;20000;-82
2021/06/15 02:57:51;;;;;;;;;;;;;;;6.15;100.00;99739.94;5075028;28;19924;-82
2021/06/15 03:00:19;;;;;;;;;;;;;;;6.26;100.00;99755.53;5057273;28;19978;-82
2021/06/15 03:02:47;;;;;;;;;;;;;;;6.19;100.00;99752.69;5074846;28;19956;-82
2021/06/15 03:05:17;;;;;;;;;;;;;;;6.32;100.00;99761.53;5057155;28;19926;-82
2021/06/15 03:07:48;;;;;;;;;;;;;;;6.39;100.00;99762.44;5057234;28;19932;-82
2021/06/15 03:10:18;;;;;;;;;;;;;;;6.38;100.00;99748.94;5056654;28;19971;-82
2021/06/15 03:12:49;;;;;;;;;;;;;;;6.60;100.00;99756.34;5074532;28;19932;-82
2021/06/15 03:15:20;;;;;;;;;;;;;;;6.85;100.00;99751.81;5056748;28;19924;-83
2021/06/15 03:17:50;;;;;;;;;;;;;;;7.00;100.00;99748.00;5056816;28;19925;-82
2021/06/15 03:20:20;;;;;;;;;;;;;;;7.12;100.00;99754.06;5056873;28;19924;-82
2021/06/15 03:22:58;;;;;;;;;;;;;;;7.06;100.00;99746.44;5059869;28;20015;-82
2021/06/15 03:25:30;;;;;;;;;;;;;;;6.55;100.00;99737.22;5074410;28;19998;-82
2021/06/15 03:28:02;;;;;;;;;;;;;;;6.33;100.00;99735.41;5061301;28;20360;-82
2021/06/15 03:30:31;;;;;;;;;;;;;;;6.62;100.00;99745.66;5074592;28;19924;-82
2021/06/15 03:33:02;;;;;;;;;;;;;;;6.78;100.00;99746.19;5042631;28;20418;-82
2021/06/15 03:35:32;;;;;;;;;;;;;;;6.93;100.00;99743.19;5073561;28;19935;-82
2021/06/15 03:38:02;;;;;;;;;;;;;;;6.86;100.00;99737.53;5056308;28;19928;-82
2021/06/15 03:40:32;;;;;;;;;;;;;;;6.96;100.00;99742.41;5089671;28;19971;-82
2021/06/15 03:43:00;;;;;;;;;;;;;;;7.21;100.00;99742.59;5074068;28;19924;-82
2021/06/15 03:45:29;;;;;;;;;;;;;;;7.16;100.00;99740.19;5074129;28;19931;-82
2021/06/15 03:47:58;;;;;;;;;;;;;;;7.27;100.00;99746.63;5056136;28;19925;-82
2021/06/15 03:50:25;;;;;;;;;;;;;;;7.00;100.00;99746.00;5073971;28;19924;-82
2021/06/15 03:52:55;;;;;;;;;;;;;;;6.90;100.00;99741.16;5056095;28;19925;-82
2021/06/15 03:55:23;;;;;;;;;;;;;;;7.07;100.00;99742.50;5073779;28;20015;-82
2021/06/15 03:57:51;;;;;;;;;;;;;;;7.06;100.00;99750.03;5056279;28;19928;-82
2021/06/15 04:00:20;;;;;;;;;;;;;;;7.13;100.00;99758.44;5089463;28;19928;-82
2021/06/15 04:02:50;;;;;;;;;;;;;;;7.07;100.00;99759.19;5073324;28;20374;-82
2021/06/15 04:05:19;;;;;;;;;;;;;;;7.06;100.00;99769.50;5056347;28;20383;-82
2021/06/15 04:07:46;;;;;;;;;;;;;;;7.08;100.00;99766.31;5073957;28;19924;-82
2021/06/15 04:10:15;;;;;;;;;;;;;;;7.21;100.00;99767.63;5073656;28;19925;-82
2021/06/15 04:12:44;;;;;;;;;;;;;;;7.42;100.00;99769.78;5039445;28;19974;-82
2021/06/15 04:15:12;;;;;;;;;;;;;;;7.52;100.00;99780.19;5089588;28;19924;-82
2021/06/15 04:17:44;;;;;;;;;;;;;;;7.68;100.00;99777.94;5025498;28;19928;-82
2021/06/15 04:20:12;;;;;;;;;;;;;;;7.72;100.00;99789.88;5072280;28;20005;-82
2021/06/15 04:22:44;;;;;;;;;;;;;;;7.50;100.00;99783.34;5073460;28;19924;-82
2021/06/15 04:25:12;;;;;;;;;;;;;;;7.56;100.00;99775.47;5056349;28;19928;-82
2021/06/15 04:27:40;;;;;;;;;;;;;;;7.67;100.00;99779.91;5055695;28;20296;-82
2021/06/15 04:30:07;;;;;;;;;;;;;;;7.65;100.00;99784.28;5073547;28;19932;-82
2021/06/15 04:32:43;;;;;;;;;;;;;;;7.69;100.00;99791.47;5055866;28;20284;-82
2021/06/15 04:35:11;;;;;;;;;;;;;;;7.77;100.00;99787.50;5073662;28;19928;-82
2021/06/15 04:37:40;;;;;;;;;;;;;;;7.80;100.00;99803.44;5055405;28;19924;-82
2021/06/15 04:40:11;;;;;;;;;;;;;;;7.92;100.00;99788.41;5073435;28;19924;-82
2021/06/15 04:42:53;;;;;;;;;;;;;;;8.03;100.00;99778.13;5073810;28;19967;-82
2021/06/15 04:45:23;;;;;;;;;;;;;;;8.10;100.00;99776.22;5055547;28;19932;-82
2021/06/15 04:47:58;;;;;;;;;;;;;;;8.02;100.00;99782.91;5039040;28;20300;-82
2021/06/15 04:50:27;;;;;;;;;;;;;;;8.18;100.00;99794.53;5055251;28;19924;-82
2021/06/15 04:52:55;;;;;;;;;;;;;;;8.29;100.00;99792.63;5055747;28;20015;-83
2021/06/15 04:55:24;;;;;;;;;;;;;;;8.24;100.00;99792.22;5073263;28;19928;-82
2021/06/15 04:57:52;;;;;;;;;;;;;;;8.25;100.00;99780.69;5073825;28;19925;-82
2021/06/15 05:00:21;;;;;;;;;;;;;;;8.03;100.00;99781.72;5073395;28;20407;-82
2021/06/15 05:02:49;;;;;;;;;;;;;;;8.04;100.00;99779.75;5055584;28;19977;-82
2021/06/15 05:05:17;;;;;;;;;;;;;;;8.06;100.00;99783.72;5073082;28;19925;-82
2021/06/15 05:07:44;;;;;;;;;;;;;;;8.30;100.00;99793.44;5073421;28;19929;-82
2021/06/15 05:10:12;;;;;;;;;;;;;;;8.54;100.00;99795.53;5073425;28;19931;-82
2021/06/15 05:12:43;;;;;;;;;;;;;;;8.70;100.00;99798.75;5056263;28;19924;-82
2021/06/15 05:15:12;;;;;;;;;;;;;;;8.81;100.00;99797.59;5059331;28;19929;-82
2021/06/15 05:17:47;;;;;;;;;;;;;;;8.87;100.00;99801.59;5042404;28;20368;-82
2021/06/15 05:20:14;;;;;;;;;;;;;;;8.94;100.00;99818.31;5076935;28;19964;-82
2021/06/15 05:22:45;;;;;;;;;;;;;;;8.93;100.00;99810.38;5076841;28;20310;-82
2021/06/15 05:25:15;;;;;;;;;;;;;;;9.15;100.00;99811.97;5076970;28;19924;-82
2021/06/15 05:27:42;;;;;;;;;;;;;;;9.43;100.00;99825.16;5076764;28;20306;-83
2021/06/15 05:30:10;;;;;;;;;;;;;;;9.65;100.00;99824.00;5059130;28;19931;-82
2021/06/15 05:32:44;;;;;;;;;;;;;;;9.64;100.00;99819.59;5058657;28;19924;-82
2021/06/15 05:35:11;;;;;;;;;;;;;;;9.76;100.00;99813.59;5058536;28;20375;-83
2021/06/15 05:37:40;;;;;;;;;;;;;;;9.72;100.00;99823.97;5076888;28;20490;-82
2021/06/15 05:40:08;;;;;;;;;;;;;;;9.81;100.00;99832.75;5041836;28;20287;-82
2021/06/15 05:42:35;;;;;;;;;;;;;;;10.17;100.00;99825.94;5058877;28;20015;-82
2021/06/15 05:45:03;;;;;;;;;;;;;;;10.37;100.00;99821.50;5076264;28;19925;-82
2021/06/15 05:47:30;;;;;;;;;;;;;;;10.64;100.00;99811.41;5092249;28;20374;-82
2021/06/15 05:49:58;;;;;;;;;;;;;;;10.42;100.00;99804.31;5076094;28;20015;-82
2021/06/15 05:52:25;;;;;;;;;;;;;;;9.97;100.00;99796.81;5076296;28;19933;-82
2021/06/15 05:54:52;;;;;;;;;;;;;;;10.28;100.00;99787.59;5058389;28;20267;-82
2021/06/15 05:57:19;;;;;;;;;;;;;;;10.55;100.00;99783.09;5076420;28;19932;-82
2021/06/15 05:59:46;;;;;;;;;;;;;;;10.86;100.00;99776.53;5058598;28;19931;-82
2021/06/15 06:02:14;;;;;;;;;;;;;;;10.99;100.00;99794.44;5076268;28;19950;-82
2021/06/15 06:05:04;;;;;;;;;;;;;;;11.08;100.00;99789.19;5075682;28;20454;-83
2021/06/15 06:10:17;;;;;;;;;;;;;;;11.69;100.00;99798.75;5076033;28;20367;-83
2021/06/15 06:12:44;;;;;;;;;;;;;;;11.31;100.00;99783.84;5076059;28;19925;-82
2021/06/15 06:15:12;;;;;;;;;;;;;;;10.77;100.00;99762.22;5075984;28;19925;-82
2021/06/15 06:17:40;;;;;;;;;;;;;;;10.98;100.00;99766.91;5075741;28;19924;-82
2021/06/15 06:20:10;;;;;;;;;;;;;;;11.45;100.00;99786.50;5075615;28;19928;-82
2021/06/15 06:22:37;;;;;;;;;;;;;;;11.70;100.00;99775.13;5057788;28;19959;-83
2021/06/15 06:25:06;;;;;;;;;;;;;;;11.79;100.00;99767.84;5057372;28;19924;-83
2021/06/15 06:27:36;;;;;;;;;;;;;;;12.02;100.00;99756.03;5058109;28;19924;-82
2021/06/15 06:30:03;;;;;;;;;;;;;;;12.43;100.00;99753.94;5058174;28;19924;-82
2021/06/15 06:32:32;;;;;;;;;;;;;;;12.80;100.00;99759.44;5075592;28;19924;-82
2021/06/15 06:35:02;;;;;;;;;;;;;;;13.30;100.00;99754.69;5057435;28;19929;-82
2021/06/15 06:37:30;;;;;;;;;;;;;;;13.44;100.00;99750.88;5090969;28;19928;-83
2021/06/15 06:39:57;;;;;;;;;;;;;;;13.84;100.00;99744.16;5075147;28;19977;-83
2021/06/15 06:42:24;;;;;;;;;;;;;;;13.89;100.00;99738.03;5075442;28;20007;-83
2021/06/15 06:44:51;;;;;;;;;;;;;;;13.44;100.00;99742.44;5075220;28;19929;-83
2021/06/15 06:47:18;;;;;;;;;;;;;;;13.82;100.00;99740.97;5075111;28;19924;-83
2021/06/15 06:49:45;;;;;;;;;;;;;;;14.85;100.00;99752.56;5074900;28;19932;-83
2021/06/15 06:52:12;;;;;;;;;;;;;;;16.05;100.00;99751.16;5057048;28;20288;-83
2021/06/15 06:54:39;;;;;;;;;;;;;;;17.48;100.00;99733.97;5057290;28;20056;-83
2021/06/15 06:57:06;;;;;;;;;;;;;;;18.28;100.00;99734.44;5074706;28;19925;-83
2021/06/15 06:59:33;;;;;;;;;;;;;;;18.95;100.00;99739.13;5040632;28;20006;-83
2021/06/15 07:02:02;;;;;;;;;;;;;;;19.21;100.00;99711.41;5072862;28;20318;-83
2021/06/15 07:04:29;;;;;;;;;;;;;;;19.87;100.00;99709.88;5056820;28;20283;-83
2021/06/15 07:06:56;;;;;;;;;;;;;;;20.47;100.00;99708.78;5074513;28;19963;-84
2021/06/15 07:09:23;;;;;;;;;;;;;;;21.24;100.00;99715.69;5074502;28;19924;-83
2021/06/15 07:11:50;;;;;;;;;;;;;;;20.85;100.00;99714.72;5074474;28;19970;-83
2021/06/15 07:14:17;;;;;;;;;;;;;;;20.22;100.00;99706.28;5060425;28;19925;-83
2021/06/15 07:16:44;;;;;;;;;;;;;;;19.14;100.00;99698.34;5073907;28;19973;-83
2021/06/15 07:19:13;;;;;;;;;;;;;;;17.81;100.00;99700.56;5056687;28;19931;-83
2021/06/15 07:21:40;;;;;;;;;;;;;;;15.66;100.00;99703.53;5040237;28;19924;-82
2021/06/15 07:24:07;;;;;;;;;;;;;;;16.10;100.00;99719.63;5074216;28;19930;-82
2021/06/15 07:26:34;;;;;;;;;;;;;;;16.42;100.00;99724.34;5074534;28;19925;-83
2021/06/15 07:29:01;;;;;;;;;;;;;;;16.82;100.00;99713.53;5056498;28;19936;-83
2021/06/15 07:31:29;;;;;;;;;;;;;;;16.97;100.00;99704.16;5074098;28;19931;-83
2021/06/15 07:33:57;;;;;;;;;;;;;;;17.02;100.00;99706.44;5056219;28;19924;-83
2021/06/15 07:36:24;;;;;;;;;;;;;;;16.67;100.00;99695.44;5055167;28;19990;-81
2021/06/15 07:38:53;;;;;;;;;;;;;;;16.45;100.00;99688.88;5055975;28;19928;-81
2021/06/15 07:41:20;;;;;;;;;;;;;;;16.31;100.00;99684.41;5073939;28;20015;-82
2021/06/15 07:43:47;;;;;;;;;;;;;;;16.47;100.00;99692.00;5056084;28;19930;-83
2021/06/15 07:46:15;;;;;;;;;;;;;;;16.54;100.00;99686.94;5088898;28;19924;-83
2021/06/15 07:48:43;;;;;;;;;;;;;;;17.65;100.00;99675.28;5056036;28;20418;-82
2021/06/15 07:51:10;;;;;;;;;;;;;;;19.93;100.00;99660.56;5054790;28;20383;-83
2021/06/15 07:53:38;;;;;;;;;;;;;;;20.66;100.00;99649.94;5072556;28;19925;-83
2021/06/15 07:56:05;;;;;;;;;;;;;;;20.56;100.00;99659.72;5073948;28;20022;-83
2021/06/15 07:58:32;;;;;;;;;;;;;;;21.70;100.00;99660.16;5073764;28;19931;-83
2021/06/15 08:01:00;;;;;;;;;;;;;;;23.22;100.00;99653.38;5073429;28;20015;-83
2021/06/15 08:03:27;;;;;;;;;;;;;;;24.14;100.00;99643.78;5039004;28;19924;-83
2021/06/15 08:05:54;;;;;;;;;;;;;;;24.80;100.00;99643.69;5055449;28;19924;-83
2021/06/15 08:08:21;;;;;;;;;;;;;;;24.98;100.00;99637.59;5073499;28;19959;-83
2021/06/15 08:10:48;;;;;;;;;;;;;;;25.03;100.00;99641.78;5073476;28;19946;-83
2021/06/15 08:13:16;;;;;;;;;;;;;;;23.38;100.00;99635.00;5088943;28;20009;-82
2021/06/15 08:15:45;;;;;;;;;;;;;;;22.03;100.00;99649.47;5072804;28;19931;-82
2021/06/15 08:18:12;;;;;;;;;;;;;;;22.31;100.00;99642.25;5073466;28;19925;-83
2021/06/15 08:20:40;;;;;;;;;;;;;;;23.17;100.00;99653.31;5055150;28;19924;-83
2021/06/15 08:23:07;;;;;;;;;;;;;;;24.40;100.00;99649.53;5055704;28;19924;-83
2021/06/15 08:25:34;;;;;;;;;;;;;;;24.91;100.00;99637.28;5088598;28;19931;-83
2021/06/15 08:28:03;;;;;;;;;;;;;;;25.24;100.00;99632.59;5073102;28;19929;-82
2021/06/15 08:30:31;;;;;;;;;;;;;;;25.40;100.00;99629.06;5072837;28;20468;-83
2021/06/15 08:32:58;;;;;;;;;;;;;;;25.56;100.00;99633.31;5064754;28;20022;-82
2021/06/15 08:35:26;;;;;;;;;;;;;;;25.74;100.00;99630.81;5073129;28;19939;-83
2021/06/15 08:37:53;;;;;;;;;;;;;;;26.09;100.00;99627.59;5072679;28;19924;-83
2021/06/15 08:40:20;;;;;;;;;;;;;;;22.50;100.00;99620.91;5072795;28;19928;-82
2021/06/15 08:42:47;;;;;;;;;;;;;;;19.99;100.00;99646.53;5072471;28;19924;-82
2021/06/15 08:45:16;;;;;;;;;;;;;;;20.20;100.00;99659.78;5072061;28;19924;-82
2021/06/15 08:47:44;;;;;;;;;;;;;;;19.81;100.00;99653.00;5075022;28;20014;-82
2021/06/15 08:50:13;;;;;;;;;;;;;;;19.45;100.00;99642.41;5048239;28;19935;-82
2021/06/15 08:52:41;;;;;;;;;;;;;;;18.98;100.00;99627.78;5070626;28;19930;-82
2021/06/15 08:55:10;;;;;;;;;;;;;;;18.59;100.00;99637.03;5076235;28;20422;-81
2021/06/15 08:57:37;;;;;;;;;;;;;;;17.68;100.00;99626.31;5076078;28;20548;-80
2021/06/15 09:00:07;;;;;;;;;;;;;;;17.61;100.00;99629.41;5076439;28;19924;-82
2021/06/15 09:02:41;;;;;;;;;;;;;;;17.68;100.00;99615.03;5059078;28;20422;-82
2021/06/15 09:05:10;;;;;;;;;;;;;;;17.21;100.00;99612.22;5075084;28;19924;-82
2021/06/15 09:07:56;;;;;;;;;;;;;;;17.31;100.00;99610.28;5076747;28;20061;-82
2021/06/15 09:10:27;;;;;;;;;;;;;;;18.10;100.00;99618.34;5091105;28;20431;-81
2021/06/15 09:12:54;;;;;;;;;;;;;;;17.86;100.00;99618.00;5075108;28;19929;-82
2021/06/15 09:15:23;;;;;;;;;;;;;;;18.97;100.00;99623.38;5057344;28;19929;-82
2021/06/15 09:17:50;;;;;;;;;;;;;;;19.65;100.00;99613.59;5075397;28;19963;-82
2021/06/15 09:20:17;;;;;;;;;;;;;;;20.26;100.00;99626.66;5057407;28;19924;-82
2021/06/15 09:22:44;;;;;;;;;;;;;;;20.50;100.00;99613.38;5075229;28;19931;-82
2021/06/15 09:25:12;;;;;;;;;;;;;;;20.48;100.00;99605.31;5075331;28;20189;-82
2021/06/15 09:27:40;;;;;;;;;;;;;;;20.18;100.00;99631.09;5074725;28;20007;-82
2021/06/15 09:30:11;;;;;;;;;;;;;;;20.72;100.00;99625.28;5057309;28;19924;-82
2021/06/15 09:32:41;;;;;;;;;;;;;;;20.72;100.00;99626.06;5074972;28;19928;-82
2021/06/15 09:35:33;;;;;;;;;;;;;;;19.60;100.00;99609.34;5073648;28;20015;-82
2021/06/15 09:38:01;;;;;;;;;;;;;;;19.45;100.00;99608.41;5090274;28;20383;-82
2021/06/15 09:40:28;;;;;;;;;;;;;;;19.46;100.00;99595.03;5056961;28;19925;-82
2021/06/15 09:43:02;;;;;;;;;;;;;;;19.26;100.00;99603.16;5074704;28;19931;-81
2021/06/15 09:45:29;;;;;;;;;;;;;;;18.90;100.00;99606.66;5057119;28;19959;-82
2021/06/15 09:48:15;;;;;;;;;;;;;;;19.33;100.00;99598.00;5090722;28;20375;-82
2021/06/15 09:50:42;;;;;;;;;;;;;;;19.31;100.00;99603.34;5062889;28;19935;-82
2021/06/15 09:53:26;;;;;;;;;;;;;;;18.80;100.00;99602.22;5056796;28;20419;-81
2021/06/15 09:55:55;;;;;;;;;;;;;;;19.41;100.00;99606.97;5074627;28;19931;-81
2021/06/15 09:58:42;;;;;;;;;;;;;;;19.79;100.00;99612.19;5074433;28;20075;-82
2021/06/15 10:01:23;;;;;;;;;;;;;;;19.44;100.00;99595.50;5074090;28;20288;-82
2021/06/15 10:04:23;;;;;;;;;;;;;;;19.50;100.00;99596.44;5056611;28;19924;-82
2021/06/15 10:06:54;;;;;;;;;;;;;;;19.26;100.00;99600.31;5045263;28;19925;-81
2021/06/15 10:09:23;;;;;;;;;;;;;;;19.01;100.00;99612.69;5074281;28;20047;-81
2021/06/15 10:11:51;;;;;;;;;;;;;;;18.99;100.00;99615.19;5056394;28;19924;-81
2021/06/15 10:14:19;;;;;;;;;;;;;;;19.39;100.00;99609.47;5056636;28;19950;-81
2021/06/15 10:16:46;;;;;;;;;;;;;;;19.41;100.00;99610.59;5074204;28;19924;-82
2021/06/15 10:19:14;;;;;;;;;;;;;;;19.38;100.00;99620.03;5074240;28;19931;-82
2021/06/15 10:21:42;;;;;;;;;;;;;;;19.53;100.00;99620.22;5074194;28;19978;-81
2021/06/15 10:24:12;;;;;;;;;;;;;;;19.63;100.00;99608.41;5089304;28;20027;-82
2021/06/15 10:26:48;;;;;;;;;;;;;;;19.40;100.00;99611.84;5074004;28;19947;-82
2021/06/15 10:29:16;;;;;;;;;;;;;;;19.23;100.00;99606.91;5073987;28;19928;-82
2021/06/15 10:31:44;;;;;;;;;;;;;;;19.19;100.00;99612.72;5039991;28;20402;-82
2021/06/15 10:34:12;;;;;;;;;;;;;;;18.97;100.00;99595.06;5073754;28;19924;-82
2021/06/15 10:36:39;;;;;;;;;;;;;;;19.18;100.00;99582.84;5073860;28;19928;-82
2021/06/15 10:39:07;;;;;;;;;;;;;;;19.31;100.00;99580.66;5055952;28;20413;-82
2021/06/15 10:41:35;;;;;;;;;;;;;;;19.15;100.00;99572.44;5073454;28;20027;-82
2021/06/15 10:44:02;;;;;;;;;;;;;;;19.15;100.00;99572.44;5073893;28;19928;-81
2021/06/15 10:46:34;;;;;;;;;;;;;;;18.77;100.00;99577.69;5073576;28;19924;-82
2021/06/15 10:49:04;;;;;;;;;;;;;;;18.58;100.00;99581.72;5073781;28;20288;-82
2021/06/15 10:51:36;;;;;;;;;;;;;;;18.56;100.00;99587.03;5073921;28;20431;-81
2021/06/15 10:54:24;;;;;;;;;;;;;;;18.53;100.00;99573.81;5073252;28;19995;-81
2021/06/15 10:57:10;;;;;;;;;;;;;;;18.64;100.00;99576.22;5073578;28;20031;-81
2021/06/15 10:59:57;;;;;;;;;;;;;;;18.80;100.00;99550.47;5073469;28;20069;-81
2021/06/15 11:02:28;;;;;;;;;;;;;;;19.04;100.00;99546.59;5073257;28;20317;-81
2021/06/15 11:04:55;;;;;;;;;;;;;;;19.10;100.00;99543.97;5073471;28;20089;-82
2021/06/15 11:07:26;;;;;;;;;;;;;;;18.81;100.00;99535.09;5073091;28;19965;-82
2021/06/15 11:09:55;;;;;;;;;;;;;;;18.88;100.00;99534.78;5073186;28;19924;-81
2021/06/15 11:12:23;;;;;;;;;;;;;;;18.41;100.00;99535.09;5072873;28;20401;-81
2021/06/15 11:15:10;;;;;;;;;;;;;;;18.09;100.00;99531.91;5073046;28;19928;-82
2021/06/15 11:17:51;;;;;;;;;;;;;;;18.49;100.00;99527.91;5073935;28;20019;-82
2021/06/15 11:20:32;;;;;;;;;;;;;;;18.72;100.00;99512.41;5073795;28;19955;-79
2021/06/15 11:23:17;;;;;;;;;;;;;;;19.17;100.00;99512.47;5086283;28;19973;-79
2021/06/15 11:25:54;;;;;;;;;;;;;;;19.27;100.00;99512.03;5073320;28;20015;-79
2021/06/15 11:28:37;;;;;;;;;;;;;;;19.36;100.00;99517.72;5089116;28;19944;-79
2021/06/15 11:31:17;;;;;;;;;;;;;;;19.42;100.00;99515.81;5088314;28;19925;-79
2021/06/15 11:34:03;;;;;;;;;;;;;;;19.14;100.00;99502.91;5073271;28;19925;-79
2021/06/15 11:36:40;;;;;;;;;;;;;;;19.03;100.00;99498.94;5085788;28;20009;-79
2021/06/15 11:39:23;;;;;;;;;;;;;;;18.81;100.00;99504.72;5073258;28;20011;-79
2021/06/15 11:42:08;;;;;;;;;;;;;;;19.01;100.00;99495.78;5072029;28;19924;-79
2021/06/15 11:44:59;;;;;;;;;;;;;;;19.05;100.00;99494.34;5073487;28;19932;-79
2021/06/15 11:47:46;;;;;;;;;;;;;;;19.43;100.00;99493.94;5062553;28;19924;-79
2021/06/15 11:50:14;;;;;;;;;;;;;;;19.65;100.00;99503.06;5073264;28;19932;-79
2021/06/15 11:52:43;;;;;;;;;;;;;;;19.53;100.00;99504.81;5073005;28;20609;-81
2021/06/15 11:55:11;;;;;;;;;;;;;;;19.33;100.00;99506.53;5073320;28;19928;-81
2021/06/15 11:57:38;;;;;;;;;;;;;;;19.31;100.00;99492.06;5072101;28;19966;-81
2021/06/15 12:00:16;;;;;;;;;;;;;;;19.32;100.00;99500.09;5073181;28;20410;-80
2021/06/15 12:02:43;;;;;;;;;;;;;;;19.48;100.00;99504.63;5073288;28;19928;-81
2021/06/15 12:05:10;;;;;;;;;;;;;;;19.33;100.00;99496.00;5073004;28;20017;-81
2021/06/15 12:07:51;;;;;;;;;;;;;;;18.94;100.00;99487.59;5087892;28;19924;-80
2021/06/15 12:10:20;;;;;;;;;;;;;;;19.00;100.00;99480.84;5073274;28;19943;-81
2021/06/15 12:13:03;;;;;;;;;;;;;;;18.93;100.00;99474.69;5073395;28;19928;-81
2021/06/15 12:15:35;;;;;;;;;;;;;;;19.05;100.00;99483.03;5072985;28;20283;-81
2021/06/15 12:18:03;;;;;;;;;;;;;;;19.17;100.00;99472.81;5088852;28;19924;-81
2021/06/15 12:20:33;;;;;;;;;;;;;;;19.37;100.00;99473.94;5073061;28;19924;-81
2021/06/15 12:23:19;;;;;;;;;;;;;;;19.38;100.00;99466.25;5074219;28;19947;-81
2021/06/15 12:25:47;;;;;;;;;;;;;;;19.35;100.00;99467.97;5077234;28;19977;-81
2021/06/15 12:28:15;;;;;;;;;;;;;;;19.65;100.00;99458.50;5077486;28;19924;-81
2021/06/15 12:30:44;;;;;;;;;;;;;;;19.70;100.00;99455.00;5077135;28;20575;-81
2021/06/15 12:33:12;;;;;;;;;;;;;;;19.28;100.00;99453.34;5077204;28;19964;-81
2021/06/15 12:35:39;;;;;;;;;;;;;;;19.49;100.00;99443.88;5076887;28;19956;-81
2021/06/15 12:38:07;;;;;;;;;;;;;;;18.63;100.00;99445.22;5059111;28;20006;-80
2021/06/15 12:40:36;;;;;;;;;;;;;;;19.05;100.00;99449.03;5077093;28;20429;-81
2021/06/15 12:43:03;;;;;;;;;;;;;;;19.15;100.00;99436.47;5076825;28;19963;-81
2021/06/15 12:45:31;;;;;;;;;;;;;;;19.11;100.00;99435.84;5076988;28;19924;-81
2021/06/15 12:47:58;;;;;;;;;;;;;;;19.50;100.00;99443.41;5077063;28;19932;-81
2021/06/15 12:50:27;;;;;;;;;;;;;;;19.53;100.00;99442.44;5076557;28;19928;-81
2021/06/15 12:53:04;;;;;;;;;;;;;;;19.26;100.00;99436.78;5058881;28;19982;-80
2021/06/15 12:55:31;;;;;;;;;;;;;;;19.30;100.00;99434.59;5076440;28;20017;-82
2021/06/15 12:57:59;;;;;;;;;;;;;;;19.00;100.00;99434.75;5058592;28;19931;-82
2021/06/15 13:00:27;;;;;;;;;;;;;;;19.00;100.00;99429.06;5058078;28;19931;-79